YGP weather

Gaspé (Michel-Pouliot) Airport
Gaspé, Quebec, Canada

Public forecast

Using degrees Celsius for public forecast. Weather courtesy of forecast.io.

METAR (pilot weather report)

Retrieved 2019/05/22 04:00 UTC (1 hour ago):

CYGP 220400Z 36006KT 4SM -RA OVC015 05/04 A2978 RMK SC8 SLP089

TAF (pilot weather forecast)

Retrieved 2019/05/22 02:00 UTC (3 hours ago):

TAF CYGP 220138Z 2202/2214 34007KT 5SM -RA BR OVC020 TEMPO 2202/2208 P6SM -RA OVC025 BECMG 2203/2205 02012G22KT FM220800 02015G25KT P6SM BKN050 RMK NXT FCST BY 220800Z